sensor_id;sensor_type;location;lat;lon;timestamp;P1;durP1;ratioP1;P2;durP2;ratioP2
39294;SDS011;52361;52.100;5.248;2023-05-10T00:00:14;13.2;;;8.1;;
39294;SDS011;52361;52.100;5.248;2023-05-10T00:03:27;16.5;;;8.71;;
39294;SDS011;52361;52.100;5.248;2023-05-10T00:05:03;13.1;;;6.7;;
39294;SDS011;52361;52.100;5.248;2023-05-10T00:06:40;16.2;;;9.31;;
39294;SDS011;52361;52.100;5.248;2023-05-10T00:08:16;13.9;;;8.31;;
39294;SDS011;52361;52.100;5.248;2023-05-10T00:11:29;17.7;;;8.71;;
39294;SDS011;52361;52.100;5.248;2023-05-10T00:13:05;16.7;;;8.9;;
39294;SDS011;52361;52.100;5.248;2023-05-10T00:17:53;15.0;;;8.9;;
39294;SDS011;52361;52.100;5.248;2023-05-10T00:19:29;13.9;;;7.8;;
39294;SDS011;52361;52.100;5.248;2023-05-10T00:21:05;13.1;;;8.31;;
39294;SDS011;52361;52.100;5.248;2023-05-10T00:24:18;15.8;;;7.8;;
39294;SDS011;52361;52.100;5.248;2023-05-10T00:25:54;14.7;;;7.7;;
39294;SDS011;52361;52.100;5.248;2023-05-10T00:27:30;10.6;;;7.3;;
39294;SDS011;52361;52.100;5.248;2023-05-10T00:29:06;15.3;;;8.81;;
39294;SDS011;52361;52.100;5.248;2023-05-10T00:32:18;15.4;;;9.0;;
39294;SDS011;52361;52.100;5.248;2023-05-10T00:33:54;18.61;;;8.2;;
39294;SDS011;52361;52.100;5.248;2023-05-10T00:35:31;16.61;;;8.5;;
39294;SDS011;52361;52.100;5.248;2023-05-10T00:38:44;13.8;;;8.0;;
39294;SDS011;52361;52.100;5.248;2023-05-10T00:40:20;14.3;;;8.0;;
39294;SDS011;52361;52.100;5.248;2023-05-10T00:41:56;14.4;;;8.5;;
39294;SDS011;52361;52.100;5.248;2023-05-10T00:45:08;14.2;;;7.4;;
39294;SDS011;52361;52.100;5.248;2023-05-10T00:46:44;16.7;;;9.71;;
39294;SDS011;52361;52.100;5.248;2023-05-10T00:48:21;16.5;;;9.1;;
39294;SDS011;52361;52.100;5.248;2023-05-10T00:51:34;14.2;;;8.9;;
39294;SDS011;52361;52.100;5.248;2023-05-10T00:53:10;16.61;;;8.4;;
39294;SDS011;52361;52.100;5.248;2023-05-10T00:54:46;13.9;;;8.4;;
39294;SDS011;52361;52.100;5.248;2023-05-10T00:56:22;15.4;;;8.71;;
39294;SDS011;52361;52.100;5.248;2023-05-10T00:59:35;22.2;;;9.5;;
39294;SDS011;52361;52.100;5.248;2023-05-10T01:01:11;16.8;;;8.6;;
39294;SDS011;52361;52.100;5.248;2023-05-10T01:02:49;13.8;;;8.0;;
39294;SDS011;52361;52.100;5.248;2023-05-10T01:06:01;14.3;;;9.4;;
39294;SDS011;52361;52.100;5.248;2023-05-10T01:07:37;13.6;;;7.9;;
39294;SDS011;52361;52.100;5.248;2023-05-10T01:09:13;16.3;;;9.21;;
39294;SDS011;52361;52.100;5.248;2023-05-10T01:12:25;16.9;;;8.6;;
39294;SDS011;52361;52.100;5.248;2023-05-10T01:14:01;16.2;;;9.5;;
39294;SDS011;52361;52.100;5.248;2023-05-10T01:15:38;21.0;;;8.6;;
39294;SDS011;52361;52.100;5.248;2023-05-10T01:17:16;17.7;;;9.6;;
39294;SDS011;52361;52.100;5.248;2023-05-10T01:20:32;13.9;;;7.8;;
39294;SDS011;52361;52.100;5.248;2023-05-10T01:22:25;17.11;;;9.21;;
39294;SDS011;52361;52.100;5.248;2023-05-10T01:24:38;22.7;;;9.81;;
39294;SDS011;52361;52.100;5.248;2023-05-10T01:28:04;19.2;;;9.0;;
39294;SDS011;52361;52.100;5.248;2023-05-10T01:30:05;18.11;;;8.31;;
39294;SDS011;52361;52.100;5.248;2023-05-10T01:32:03;22.4;;;9.6;;
39294;SDS011;52361;52.100;5.248;2023-05-10T01:35:34;14.5;;;8.0;;
39294;SDS011;52361;52.100;5.248;2023-05-10T01:37:20;18.7;;;7.9;;
39294;SDS011;52361;52.100;5.248;2023-05-10T01:39:02;16.2;;;9.71;;
39294;SDS011;52361;52.100;5.248;2023-05-10T01:40:48;19.61;;;8.2;;
39294;SDS011;52361;52.100;5.248;2023-05-10T01:42:38;20.2;;;9.4;;
39294;SDS011;52361;52.100;5.248;2023-05-10T01:46:10;19.7;;;7.9;;
39294;SDS011;52361;52.100;5.248;2023-05-10T01:47:54;12.9;;;8.1;;
39294;SDS011;52361;52.100;5.248;2023-05-10T01:49:39;13.6;;;7.1;;
39294;SDS011;52361;52.100;5.248;2023-05-10T01:51:19;13.8;;;6.8;;
39294;SDS011;52361;52.100;5.248;2023-05-10T01:53:00;15.0;;;6.5;;
39294;SDS011;52361;52.100;5.248;2023-05-10T01:56:19;13.9;;;7.4;;
39294;SDS011;52361;52.100;5.248;2023-05-10T01:58:01;15.3;;;7.9;;
39294;SDS011;52361;52.100;5.248;2023-05-10T01:59:40;13.0;;;8.31;;
39294;SDS011;52361;52.100;5.248;2023-05-10T02:01:21;13.8;;;6.5;;
39294;SDS011;52361;52.100;5.248;2023-05-10T02:04:39;12.1;;;7.2;;
39294;SDS011;52361;52.100;5.248;2023-05-10T02:06:18;16.7;;;9.5;;
39294;SDS011;52361;52.100;5.248;2023-05-10T02:07:57;16.11;;;8.2;;
39294;SDS011;52361;52.100;5.248;2023-05-10T02:09:35;17.0;;;7.5;;
39294;SDS011;52361;52.100;5.248;2023-05-10T02:12:53;17.11;;;7.9;;
39294;SDS011;52361;52.100;5.248;2023-05-10T02:14:30;15.2;;;7.6;;
39294;SDS011;52361;52.100;5.248;2023-05-10T02:16:10;21.9;;;9.31;;
39294;SDS011;52361;52.100;5.248;2023-05-10T02:19:29;20.3;;;9.4;;
39294;SDS011;52361;52.100;5.248;2023-05-10T02:21:07;19.3;;;10.7;;
39294;SDS011;52361;52.100;5.248;2023-05-10T02:22:45;13.6;;;8.9;;
39294;SDS011;52361;52.100;5.248;2023-05-10T02:24:25;21.6;;;10.9;;
39294;SDS011;52361;52.100;5.248;2023-05-10T02:27:39;22.1;;;8.6;;
39294;SDS011;52361;52.100;5.248;2023-05-10T02:29:18;18.91;;;8.0;;
39294;SDS011;52361;52.100;5.248;2023-05-10T02:30:55;14.4;;;8.71;;
39294;SDS011;52361;52.100;5.248;2023-05-10T02:32:32;21.9;;;10.4;;
39294;SDS011;52361;52.100;5.248;2023-05-10T02:35:48;21.9;;;9.0;;
39294;SDS011;52361;52.100;5.248;2023-05-10T02:37:26;21.8;;;10.1;;
39294;SDS011;52361;52.100;5.248;2023-05-10T02:39:04;20.2;;;9.71;;
39294;SDS011;52361;52.100;5.248;2023-05-10T02:42:26;18.0;;;8.4;;
39294;SDS011;52361;52.100;5.248;2023-05-10T02:44:04;22.7;;;9.5;;
39294;SDS011;52361;52.100;5.248;2023-05-10T02:45:43;25.1;;;11.6;;
39294;SDS011;52361;52.100;5.248;2023-05-10T02:47:23;29.5;;;9.5;;
39294;SDS011;52361;52.100;5.248;2023-05-10T02:50:36;27.4;;;11.3;;
39294;SDS011;52361;52.100;5.248;2023-05-10T02:52:20;26.2;;;11.4;;
39294;SDS011;52361;52.100;5.248;2023-05-10T02:54:00;21.4;;;10.8;;
39294;SDS011;52361;52.100;5.248;2023-05-10T02:55:57;22.7;;;12.2;;
39294;SDS011;52361;52.100;5.248;2023-05-10T02:59:17;25.9;;;9.9;;
39294;SDS011;52361;52.100;5.248;2023-05-10T03:00:53;30.7;;;11.7;;
39294;SDS011;52361;52.100;5.248;2023-05-10T03:02:30;26.1;;;11.5;;
39294;SDS011;52361;52.100;5.248;2023-05-10T03:04:05;21.8;;;10.0;;
39294;SDS011;52361;52.100;5.248;2023-05-10T03:07:19;40.1;;;11.4;;
39294;SDS011;52361;52.100;5.248;2023-05-10T03:08:55;27.9;;;12.5;;
39294;SDS011;52361;52.100;5.248;2023-05-10T03:10:31;28.9;;;13.7;;
39294;SDS011;52361;52.100;5.248;2023-05-10T03:14:08;28.7;;;13.5;;
39294;SDS011;52361;52.100;5.248;2023-05-10T03:15:53;25.3;;;11.5;;
39294;SDS011;52361;52.100;5.248;2023-05-10T03:17:39;24.7;;;12.1;;
39294;SDS011;52361;52.100;5.248;2023-05-10T03:19:24;20.9;;;10.1;;
39294;SDS011;52361;52.100;5.248;2023-05-10T03:21:07;23.2;;;11.1;;
39294;SDS011;52361;52.100;5.248;2023-05-10T03:22:46;29.7;;;11.5;;
39294;SDS011;52361;52.100;5.248;2023-05-10T03:26:04;18.0;;;11.1;;
39294;SDS011;52361;52.100;5.248;2023-05-10T03:27:43;25.2;;;12.2;;
39294;SDS011;52361;52.100;5.248;2023-05-10T03:29:20;22.3;;;11.1;;
39294;SDS011;52361;52.100;5.248;2023-05-10T03:32:35;21.9;;;11.3;;
39294;SDS011;52361;52.100;5.248;2023-05-10T03:34:11;15.9;;;10.21;;
39294;SDS011;52361;52.100;5.248;2023-05-10T03:35:47;24.1;;;12.0;;
39294;SDS011;52361;52.100;5.248;2023-05-10T03:37:23;24.5;;;9.6;;
39294;SDS011;52361;52.100;5.248;2023-05-10T03:40:35;22.3;;;10.21;;
39294;SDS011;52361;52.100;5.248;2023-05-10T03:42:11;27.7;;;10.21;;
39294;SDS011;52361;52.100;5.248;2023-05-10T03:43:48;28.0;;;11.9;;
39294;SDS011;52361;52.100;5.248;2023-05-10T03:47:00;20.11;;;9.5;;
39294;SDS011;52361;52.100;5.248;2023-05-10T03:48:36;21.9;;;11.1;;
39294;SDS011;52361;52.100;5.248;2023-05-10T03:50:13;22.9;;;9.71;;
39294;SDS011;52361;52.100;5.248;2023-05-10T03:53:25;24.3;;;9.71;;
39294;SDS011;52361;52.100;5.248;2023-05-10T03:55:01;23.4;;;10.6;;
39294;SDS011;52361;52.100;5.248;2023-05-10T03:56:38;26.6;;;11.0;;
39294;SDS011;52361;52.100;5.248;2023-05-10T03:59:51;18.91;;;8.6;;
39294;SDS011;52361;52.100;5.248;2023-05-10T04:01:27;22.0;;;10.3;;
39294;SDS011;52361;52.100;5.248;2023-05-10T04:03:03;19.7;;;9.21;;
39294;SDS011;52361;52.100;5.248;2023-05-10T04:04:39;22.4;;;10.9;;
39294;SDS011;52361;52.100;5.248;2023-05-10T04:13:13;20.8;;;9.5;;
39294;SDS011;52361;52.100;5.248;2023-05-10T04:16:25;26.2;;;13.7;;
39294;SDS011;52361;52.100;5.248;2023-05-10T04:18:01;24.0;;;11.0;;
39294;SDS011;52361;52.100;5.248;2023-05-10T04:19:37;20.11;;;10.21;;
39294;SDS011;52361;52.100;5.248;2023-05-10T04:22:50;28.5;;;12.3;;
39294;SDS011;52361;52.100;5.248;2023-05-10T04:24:26;25.5;;;11.3;;
39294;SDS011;52361;52.100;5.248;2023-05-10T04:26:02;27.1;;;13.1;;
39294;SDS011;52361;52.100;5.248;2023-05-10T04:27:38;26.5;;;12.7;;
39294;SDS011;52361;52.100;5.248;2023-05-10T04:30:50;31.8;;;11.9;;
39294;SDS011;52361;52.100;5.248;2023-05-10T04:32:27;38.71;;;12.5;;
39294;SDS011;52361;52.100;5.248;2023-05-10T04:34:03;28.9;;;11.8;;
39294;SDS011;52361;52.100;5.248;2023-05-10T04:37:15;27.2;;;10.7;;
39294;SDS011;52361;52.100;5.248;2023-05-10T04:38:51;24.7;;;10.5;;
39294;SDS011;52361;52.100;5.248;2023-05-10T04:40:27;31.9;;;10.0;;
39294;SDS011;52361;52.100;5.248;2023-05-10T04:43:39;26.8;;;11.8;;
39294;SDS011;52361;52.100;5.248;2023-05-10T04:45:16;20.3;;;10.7;;
39294;SDS011;52361;52.100;5.248;2023-05-10T04:46:52;30.5;;;11.1;;
39294;SDS011;52361;52.100;5.248;2023-05-10T04:50:04;21.9;;;10.7;;
39294;SDS011;52361;52.100;5.248;2023-05-10T04:51:42;24.6;;;12.6;;
39294;SDS011;52361;52.100;5.248;2023-05-10T04:53:18;21.4;;;10.4;;
39294;SDS011;52361;52.100;5.248;2023-05-10T04:54:54;22.6;;;10.9;;
39294;SDS011;52361;52.100;5.248;2023-05-10T04:58:07;23.0;;;11.0;;
39294;SDS011;52361;52.100;5.248;2023-05-10T04:59:43;24.6;;;12.0;;
39294;SDS011;52361;52.100;5.248;2023-05-10T05:01:19;27.6;;;11.4;;
39294;SDS011;52361;52.100;5.248;2023-05-10T05:04:31;23.3;;;10.8;;
39294;SDS011;52361;52.100;5.248;2023-05-10T05:06:07;18.3;;;9.6;;
39294;SDS011;52361;52.100;5.248;2023-05-10T05:07:43;29.2;;;12.7;;
39294;SDS011;52361;52.100;5.248;2023-05-10T05:10:56;24.7;;;11.9;;
39294;SDS011;52361;52.100;5.248;2023-05-10T05:12:32;23.7;;;11.2;;
39294;SDS011;52361;52.100;5.248;2023-05-10T05:14:08;18.0;;;8.71;;
39294;SDS011;52361;52.100;5.248;2023-05-10T05:15:44;24.6;;;11.6;;
39294;SDS011;52361;52.100;5.248;2023-05-10T05:18:57;24.7;;;11.3;;
39294;SDS011;52361;52.100;5.248;2023-05-10T05:20:37;25.2;;;11.5;;
39294;SDS011;52361;52.100;5.248;2023-05-10T05:22:16;18.3;;;9.4;;
39294;SDS011;52361;52.100;5.248;2023-05-10T05:25:31;15.5;;;9.5;;
39294;SDS011;52361;52.100;5.248;2023-05-10T05:27:07;25.5;;;11.4;;
39294;SDS011;52361;52.100;5.248;2023-05-10T05:28:42;19.3;;;11.0;;
39294;SDS011;52361;52.100;5.248;2023-05-10T05:31:54;21.6;;;10.5;;
39294;SDS011;52361;52.100;5.248;2023-05-10T05:33:32;32.71;;;12.6;;
39294;SDS011;52361;52.100;5.248;2023-05-10T05:35:09;23.1;;;10.9;;
39294;SDS011;52361;52.100;5.248;2023-05-10T05:36:45;20.11;;;9.31;;
39294;SDS011;52361;52.100;5.248;2023-05-10T05:39:59;20.3;;;9.4;;
39294;SDS011;52361;52.100;5.248;2023-05-10T05:41:37;17.8;;;8.6;;
39294;SDS011;52361;52.100;5.248;2023-05-10T05:43:15;18.8;;;8.1;;
39294;SDS011;52361;52.100;5.248;2023-05-10T05:46:30;18.7;;;8.9;;
39294;SDS011;52361;52.100;5.248;2023-05-10T05:48:08;15.5;;;7.9;;
39294;SDS011;52361;52.100;5.248;2023-05-10T05:49:46;13.5;;;7.9;;
39294;SDS011;52361;52.100;5.248;2023-05-10T05:51:24;17.11;;;8.6;;
39294;SDS011;52361;52.100;5.248;2023-05-10T05:54:37;17.2;;;8.81;;
39294;SDS011;52361;52.100;5.248;2023-05-10T05:56:14;19.91;;;10.21;;
39294;SDS011;52361;52.100;5.248;2023-05-10T05:57:52;25.2;;;10.9;;
39294;SDS011;52361;52.100;5.248;2023-05-10T06:01:07;17.7;;;9.81;;
39294;SDS011;52361;52.100;5.248;2023-05-10T06:02:45;16.9;;;9.0;;
39294;SDS011;52361;52.100;5.248;2023-05-10T06:04:23;18.2;;;9.21;;
39294;SDS011;52361;52.100;5.248;2023-05-10T06:06:01;19.8;;;9.4;;
39294;SDS011;52361;52.100;5.248;2023-05-10T06:09:16;17.91;;;9.31;;
39294;SDS011;52361;52.100;5.248;2023-05-10T06:10:53;18.41;;;8.31;;
39294;SDS011;52361;52.100;5.248;2023-05-10T06:12:30;19.41;;;8.6;;
39294;SDS011;52361;52.100;5.248;2023-05-10T06:15:45;16.2;;;9.31;;
39294;SDS011;52361;52.100;5.248;2023-05-10T06:17:23;11.9;;;6.7;;
39294;SDS011;52361;52.100;5.248;2023-05-10T06:19:00;18.11;;;7.3;;
39294;SDS011;52361;52.100;5.248;2023-05-10T06:20:38;19.3;;;7.0;;
39294;SDS011;52361;52.100;5.248;2023-05-10T06:25:33;16.2;;;6.8;;
39294;SDS011;52361;52.100;5.248;2023-05-10T06:27:11;13.2;;;7.2;;
39294;SDS011;52361;52.100;5.248;2023-05-10T06:30:26;15.2;;;6.0;;
39294;SDS011;52361;52.100;5.248;2023-05-10T06:32:04;14.8;;;6.3;;
39294;SDS011;52361;52.100;5.248;2023-05-10T06:33:41;10.21;;;5.4;;
39294;SDS011;52361;52.100;5.248;2023-05-10T06:35:19;8.9;;;4.7;;
39294;SDS011;52361;52.100;5.248;2023-05-10T06:38:35;8.2;;;4.41;;
39294;SDS011;52361;52.100;5.248;2023-05-10T06:40:13;7.1;;;5.0;;
39294;SDS011;52361;52.100;5.248;2023-05-10T06:41:51;7.9;;;3.9;;
39294;SDS011;52361;52.100;5.248;2023-05-10T06:45:07;7.4;;;3.6;;
39294;SDS011;52361;52.100;5.248;2023-05-10T06:46:44;8.81;;;4.3;;
39294;SDS011;52361;52.100;5.248;2023-05-10T06:48:21;8.4;;;4.61;;
39294;SDS011;52361;52.100;5.248;2023-05-10T06:49:58;9.71;;;4.41;;
39294;SDS011;52361;52.100;5.248;2023-05-10T06:53:11;6.1;;;3.6;;
39294;SDS011;52361;52.100;5.248;2023-05-10T06:54:49;7.2;;;4.1;;
39294;SDS011;52361;52.100;5.248;2023-05-10T06:56:26;4.3;;;3.0;;
39294;SDS011;52361;52.100;5.248;2023-05-10T06:59:40;8.1;;;3.8;;
39294;SDS011;52361;52.100;5.248;2023-05-10T07:01:18;8.4;;;3.4;;
39294;SDS011;52361;52.100;5.248;2023-05-10T07:02:56;6.3;;;3.6;;
39294;SDS011;52361;52.100;5.248;2023-05-10T07:04:32;8.0;;;3.5;;
39294;SDS011;52361;52.100;5.248;2023-05-10T07:07:45;6.7;;;2.9;;
39294;SDS011;52361;52.100;5.248;2023-05-10T07:09:23;5.5;;;3.6;;
39294;SDS011;52361;52.100;5.248;2023-05-10T07:11:01;5.2;;;2.9;;
39294;SDS011;52361;52.100;5.248;2023-05-10T07:14:18;11.3;;;3.0;;
39294;SDS011;52361;52.100;5.248;2023-05-10T07:15:56;8.2;;;4.1;;
39294;SDS011;52361;52.100;5.248;2023-05-10T07:17:33;6.5;;;4.1;;
39294;SDS011;52361;52.100;5.248;2023-05-10T07:19:11;4.91;;;3.4;;
39294;SDS011;52361;52.100;5.248;2023-05-10T07:22:26;5.0;;;3.2;;
39294;SDS011;52361;52.100;5.248;2023-05-10T07:24:04;7.8;;;3.0;;
39294;SDS011;52361;52.100;5.248;2023-05-10T07:25:41;8.1;;;3.3;;
39294;SDS011;52361;52.100;5.248;2023-05-10T07:28:56;9.21;;;2.9;;
39294;SDS011;52361;52.100;5.248;2023-05-10T07:30:33;3.8;;;2.6;;
39294;SDS011;52361;52.100;5.248;2023-05-10T07:32:11;6.7;;;3.1;;
39294;SDS011;52361;52.100;5.248;2023-05-10T07:33:47;6.8;;;3.7;;
39294;SDS011;52361;52.100;5.248;2023-05-10T07:37:02;7.0;;;2.8;;
39294;SDS011;52361;52.100;5.248;2023-05-10T07:38:40;6.2;;;2.9;;
39294;SDS011;52361;52.100;5.248;2023-05-10T07:40:18;7.1;;;3.3;;
39294;SDS011;52361;52.100;5.248;2023-05-10T07:43:33;4.61;;;2.9;;
39294;SDS011;52361;52.100;5.248;2023-05-10T07:45:11;4.8;;;2.7;;
39294;SDS011;52361;52.100;5.248;2023-05-10T07:48:26;6.2;;;3.0;;
39294;SDS011;52361;52.100;5.248;2023-05-10T07:51:40;5.2;;;2.7;;
39294;SDS011;52361;52.100;5.248;2023-05-10T07:53:18;4.61;;;2.8;;
39294;SDS011;52361;52.100;5.248;2023-05-10T07:54:55;5.3;;;2.5;;
39294;SDS011;52361;52.100;5.248;2023-05-10T07:58:09;5.5;;;2.9;;
39294;SDS011;52361;52.100;5.248;2023-05-10T07:59:45;6.4;;;2.4;;
39294;SDS011;52361;52.100;5.248;2023-05-10T08:01:24;4.3;;;2.31;;
39294;SDS011;52361;52.100;5.248;2023-05-10T08:04:39;5.7;;;3.2;;
39294;SDS011;52361;52.100;5.248;2023-05-10T08:06:17;4.3;;;2.31;;
39294;SDS011;52361;52.100;5.248;2023-05-10T08:07:55;4.91;;;3.4;;
39294;SDS011;52361;52.100;5.248;2023-05-10T08:09:33;4.8;;;2.31;;
39294;SDS011;52361;52.100;5.248;2023-05-10T08:12:48;4.3;;;2.7;;
39294;SDS011;52361;52.100;5.248;2023-05-10T08:14:25;3.5;;;2.4;;
39294;SDS011;52361;52.100;5.248;2023-05-10T08:16:04;4.3;;;2.4;;
39294;SDS011;52361;52.100;5.248;2023-05-10T08:19:20;7.0;;;2.7;;
39294;SDS011;52361;52.100;5.248;2023-05-10T08:20:58;3.3;;;2.5;;
39294;SDS011;52361;52.100;5.248;2023-05-10T08:22:35;7.3;;;2.4;;
39294;SDS011;52361;52.100;5.248;2023-05-10T08:24:12;4.2;;;2.8;;
39294;SDS011;52361;52.100;5.248;2023-05-10T08:27:26;3.3;;;2.1;;
39294;SDS011;52361;52.100;5.248;2023-05-10T08:29:04;8.31;;;2.7;;
39294;SDS011;52361;52.100;5.248;2023-05-10T08:30:40;6.8;;;2.9;;
39294;SDS011;52361;52.100;5.248;2023-05-10T08:33:55;3.2;;;2.7;;
39294;SDS011;52361;52.100;5.248;2023-05-10T08:35:33;3.9;;;2.0;;
39294;SDS011;52361;52.100;5.248;2023-05-10T08:37:11;3.2;;;2.6;;
39294;SDS011;52361;52.100;5.248;2023-05-10T08:38:49;2.7;;;2.4;;
39294;SDS011;52361;52.100;5.248;2023-05-10T08:42:06;4.1;;;2.31;;
39294;SDS011;52361;52.100;5.248;2023-05-10T08:43:46;5.11;;;3.3;;
39294;SDS011;52361;52.100;5.248;2023-05-10T08:45:25;5.2;;;3.0;;
39294;SDS011;52361;52.100;5.248;2023-05-10T08:47:08;3.9;;;2.31;;
39294;SDS011;52361;52.100;5.248;2023-05-10T08:50:26;4.61;;;2.5;;
39294;SDS011;52361;52.100;5.248;2023-05-10T08:52:06;3.6;;;1.9;;
39294;SDS011;52361;52.100;5.248;2023-05-10T08:53:44;3.7;;;2.1;;
39294;SDS011;52361;52.100;5.248;2023-05-10T08:55:22;4.3;;;2.7;;
39294;SDS011;52361;52.100;5.248;2023-05-10T08:58:38;5.2;;;2.7;;
39294;SDS011;52361;52.100;5.248;2023-05-10T09:00:15;7.8;;;3.4;;
39294;SDS011;52361;52.100;5.248;2023-05-10T09:01:55;4.1;;;3.0;;
39294;SDS011;52361;52.100;5.248;2023-05-10T09:05:12;4.1;;;3.3;;
39294;SDS011;52361;52.100;5.248;2023-05-10T09:06:48;5.5;;;2.7;;
39294;SDS011;52361;52.100;5.248;2023-05-10T09:08:26;4.41;;;2.9;;
39294;SDS011;52361;52.100;5.248;2023-05-10T09:10:04;6.5;;;2.4;;
39294;SDS011;52361;52.100;5.248;2023-05-10T09:13:21;6.7;;;3.2;;
39294;SDS011;52361;52.100;5.248;2023-05-10T09:15:00;5.11;;;2.5;;
39294;SDS011;52361;52.100;5.248;2023-05-10T09:16:40;5.3;;;3.0;;
39294;SDS011;52361;52.100;5.248;2023-05-10T09:19:57;6.8;;;3.5;;
39294;SDS011;52361;52.100;5.248;2023-05-10T09:21:36;7.3;;;3.3;;
39294;SDS011;52361;52.100;5.248;2023-05-10T09:23:13;4.3;;;2.31;;
39294;SDS011;52361;52.100;5.248;2023-05-10T09:25:02;6.2;;;3.1;;
39294;SDS011;52361;52.100;5.248;2023-05-10T09:28:24;7.4;;;3.2;;
39294;SDS011;52361;52.100;5.248;2023-05-10T09:30:02;3.9;;;2.21;;
39294;SDS011;52361;52.100;5.248;2023-05-10T09:31:44;6.1;;;3.0;;
39294;SDS011;52361;52.100;5.248;2023-05-10T09:33:23;3.3;;;2.5;;
39294;SDS011;52361;52.100;5.248;2023-05-10T09:36:52;5.9;;;3.7;;
39294;SDS011;52361;52.100;5.248;2023-05-10T09:38:33;6.2;;;2.6;;
39294;SDS011;52361;52.100;5.248;2023-05-10T09:40:23;7.7;;;2.9;;
39294;SDS011;52361;52.100;5.248;2023-05-10T09:42:03;3.4;;;2.5;;
39294;SDS011;52361;52.100;5.248;2023-05-10T09:43:42;4.7;;;2.6;;
39294;SDS011;52361;52.100;5.248;2023-05-10T09:46:57;6.3;;;2.4;;
39294;SDS011;52361;52.100;5.248;2023-05-10T09:48:39;3.9;;;2.7;;
39294;SDS011;52361;52.100;5.248;2023-05-10T09:50:19;5.2;;;2.21;;
39294;SDS011;52361;52.100;5.248;2023-05-10T09:51:59;14.6;;;3.1;;
39294;SDS011;52361;52.100;5.248;2023-05-10T09:55:16;5.8;;;2.9;;
39294;SDS011;52361;52.100;5.248;2023-05-10T09:56:55;4.91;;;2.4;;
39294;SDS011;52361;52.100;5.248;2023-05-10T09:58:34;4.8;;;3.1;;
39294;SDS011;52361;52.100;5.248;2023-05-10T10:00:16;2.4;;;1.9;;
39294;SDS011;52361;52.100;5.248;2023-05-10T10:03:40;3.8;;;2.21;;
39294;SDS011;52361;52.100;5.248;2023-05-10T10:05:19;4.5;;;2.4;;
39294;SDS011;52361;52.100;5.248;2023-05-10T10:06:58;3.2;;;2.0;;
39294;SDS011;52361;52.100;5.248;2023-05-10T10:08:36;3.7;;;2.6;;
39294;SDS011;52361;52.100;5.248;2023-05-10T10:11:53;4.7;;;3.0;;
39294;SDS011;52361;52.100;5.248;2023-05-10T10:13:31;4.1;;;1.8;;
39294;SDS011;52361;52.100;5.248;2023-05-10T10:15:09;2.6;;;1.7;;
39294;SDS011;52361;52.100;5.248;2023-05-10T10:18:26;3.5;;;2.6;;
39294;SDS011;52361;52.100;5.248;2023-05-10T10:20:05;4.0;;;2.7;;
39294;SDS011;52361;52.100;5.248;2023-05-10T10:21:42;4.0;;;2.1;;
39294;SDS011;52361;52.100;5.248;2023-05-10T10:23:20;4.5;;;2.0;;
39294;SDS011;52361;52.100;5.248;2023-05-10T10:26:36;3.5;;;1.8;;
39294;SDS011;52361;52.100;5.248;2023-05-10T10:28:19;1.9;;;1.4;;
39294;SDS011;52361;52.100;5.248;2023-05-10T10:30:06;3.2;;;1.8;;
39294;SDS011;52361;52.100;5.248;2023-05-10T10:31:55;2.4;;;2.0;;
39294;SDS011;52361;52.100;5.248;2023-05-10T10:35:36;9.71;;;2.1;;
39294;SDS011;52361;52.100;5.248;2023-05-10T10:37:14;3.1;;;1.7;;
39294;SDS011;52361;52.100;5.248;2023-05-10T10:38:55;2.8;;;1.6;;
39294;SDS011;52361;52.100;5.248;2023-05-10T10:40:33;1.5;;;1.2;;
39294;SDS011;52361;52.100;5.248;2023-05-10T10:42:11;2.6;;;1.6;;
39294;SDS011;52361;52.100;5.248;2023-05-10T10:45:26;2.9;;;1.3;;
39294;SDS011;52361;52.100;5.248;2023-05-10T10:47:04;1.6;;;1.0;;
39294;SDS011;52361;52.100;5.248;2023-05-10T10:48:47;2.21;;;1.4;;
39294;SDS011;52361;52.100;5.248;2023-05-10T10:52:20;1.6;;;1.3;;
39294;SDS011;52361;52.100;5.248;2023-05-10T10:54:08;1.6;;;1.2;;
39294;SDS011;52361;52.100;5.248;2023-05-10T10:55:46;2.6;;;1.6;;
39294;SDS011;52361;52.100;5.248;2023-05-10T10:57:25;2.0;;;1.3;;
39294;SDS011;52361;52.100;5.248;2023-05-10T10:59:03;3.2;;;1.4;;
39294;SDS011;52361;52.100;5.248;2023-05-10T11:02:49;2.4;;;1.5;;
39294;SDS011;52361;52.100;5.248;2023-05-10T11:04:26;1.2;;;1.11;;
39294;SDS011;52361;52.100;5.248;2023-05-10T11:06:02;3.9;;;1.6;;
39294;SDS011;52361;52.100;5.248;2023-05-10T11:07:45;2.5;;;1.8;;
39294;SDS011;52361;52.100;5.248;2023-05-10T11:09:26;3.9;;;1.7;;
39294;SDS011;52361;52.100;5.248;2023-05-10T11:12:50;2.4;;;1.3;;
39294;SDS011;52361;52.100;5.248;2023-05-10T11:14:27;2.1;;;1.2;;
39294;SDS011;52361;52.100;5.248;2023-05-10T11:16:11;3.0;;;1.7;;
39294;SDS011;52361;52.100;5.248;2023-05-10T11:17:50;1.9;;;1.4;;
39294;SDS011;52361;52.100;5.248;2023-05-10T11:21:03;2.5;;;1.7;;
39294;SDS011;52361;52.100;5.248;2023-05-10T11:22:55;2.0;;;1.5;;
39294;SDS011;52361;52.100;5.248;2023-05-10T11:24:31;4.5;;;2.21;;
39294;SDS011;52361;52.100;5.248;2023-05-10T11:26:07;2.5;;;1.7;;
39294;SDS011;52361;52.100;5.248;2023-05-10T11:29:23;1.5;;;1.4;;
39294;SDS011;52361;52.100;5.248;2023-05-10T11:30:59;2.21;;;1.2;;
39294;SDS011;52361;52.100;5.248;2023-05-10T11:32:36;6.8;;;1.4;;
39294;SDS011;52361;52.100;5.248;2023-05-10T11:36:00;2.7;;;1.5;;
39294;SDS011;52361;52.100;5.248;2023-05-10T11:37:36;1.8;;;1.4;;
39294;SDS011;52361;52.100;5.248;2023-05-10T11:39:12;1.9;;;1.5;;
39294;SDS011;52361;52.100;5.248;2023-05-10T11:40:49;2.21;;;1.11;;
39294;SDS011;52361;52.100;5.248;2023-05-10T11:44:04;1.2;;;1.0;;
39294;SDS011;52361;52.100;5.248;2023-05-10T11:45:41;1.8;;;1.3;;
39294;SDS011;52361;52.100;5.248;2023-05-10T11:47:18;1.4;;;1.11;;
39294;SDS011;52361;52.100;5.248;2023-05-10T11:50:34;1.7;;;1.5;;
39294;SDS011;52361;52.100;5.248;2023-05-10T11:52:10;1.7;;;1.11;;
39294;SDS011;52361;52.100;5.248;2023-05-10T11:53:46;4.7;;;1.7;;
39294;SDS011;52361;52.100;5.248;2023-05-10T11:55:24;1.5;;;1.2;;
39294;SDS011;52361;52.100;5.248;2023-05-10T11:58:37;2.0;;;1.4;;
39294;SDS011;52361;52.100;5.248;2023-05-10T12:00:15;1.9;;;1.5;;
39294;SDS011;52361;52.100;5.248;2023-05-10T12:01:51;4.7;;;1.4;;
39294;SDS011;52361;52.100;5.248;2023-05-10T12:05:05;2.7;;;1.6;;
39294;SDS011;52361;52.100;5.248;2023-05-10T12:06:43;2.4;;;0.9;;
39294;SDS011;52361;52.100;5.248;2023-05-10T12:08:20;2.0;;;1.4;;
39294;SDS011;52361;52.100;5.248;2023-05-10T12:10:06;2.4;;;1.4;;
39294;SDS011;52361;52.100;5.248;2023-05-10T12:13:19;0.9;;;0.8;;
39294;SDS011;52361;52.100;5.248;2023-05-10T12:14:56;1.6;;;0.8;;
39294;SDS011;52361;52.100;5.248;2023-05-10T12:16:32;1.5;;;1.11;;
39294;SDS011;52361;52.100;5.248;2023-05-10T12:19:46;3.8;;;1.0;;
39294;SDS011;52361;52.100;5.248;2023-05-10T12:21:22;1.7;;;1.5;;
39294;SDS011;52361;52.100;5.248;2023-05-10T12:22:58;2.1;;;1.0;;
39294;SDS011;52361;52.100;5.248;2023-05-10T12:24:34;1.2;;;1.0;;
39294;SDS011;52361;52.100;5.248;2023-05-10T12:27:50;1.4;;;0.9;;
39294;SDS011;52361;52.100;5.248;2023-05-10T12:29:27;1.4;;;0.9;;
39294;SDS011;52361;52.100;5.248;2023-05-10T12:31:06;1.4;;;0.9;;
39294;SDS011;52361;52.100;5.248;2023-05-10T12:34:23;1.3;;;1.2;;
39294;SDS011;52361;52.100;5.248;2023-05-10T12:36:00;1.3;;;0.8;;
39294;SDS011;52361;52.100;5.248;2023-05-10T12:37:37;2.21;;;1.5;;
39294;SDS011;52361;52.100;5.248;2023-05-10T12:39:14;2.21;;;1.5;;
39294;SDS011;52361;52.100;5.248;2023-05-10T12:42:26;2.6;;;1.3;;
39294;SDS011;52361;52.100;5.248;2023-05-10T12:45:38;2.7;;;1.7;;
39294;SDS011;52361;52.100;5.248;2023-05-10T12:48:50;3.0;;;1.7;;
39294;SDS011;52361;52.100;5.248;2023-05-10T12:50:27;3.7;;;2.0;;
39294;SDS011;52361;52.100;5.248;2023-05-10T12:52:03;3.3;;;2.21;;
39294;SDS011;52361;52.100;5.248;2023-05-10T12:55:15;2.8;;;2.21;;
39294;SDS011;52361;52.100;5.248;2023-05-10T12:56:51;3.7;;;2.0;;
39294;SDS011;52361;52.100;5.248;2023-05-10T12:58:27;3.8;;;2.0;;
39294;SDS011;52361;52.100;5.248;2023-05-10T13:01:42;6.4;;;3.1;;
39294;SDS011;52361;52.100;5.248;2023-05-10T13:03:18;6.8;;;3.5;;
39294;SDS011;52361;52.100;5.248;2023-05-10T13:04:54;4.41;;;2.6;;